Time,TemperatureF,DewpointF,PressureIn,WindDirection,WindDirectionDegrees,WindSpeedMPH,WindSpeedGustMPH,Humidity,HourlyPrecipIn,Conditions,Clouds,dailyrainin,SoftwareType,DateUTC
2013-12-08 00:01:00,1.9,-1.6,30.37,ESE,118,3.0,7.0,85,0.00,,,0.00,WUHU216DAVISVP2,2013-12-08 06:01:00,
2013-12-08 00:06:00,2.0,-1.3,30.37,ENE,75,1.0,5.0,86,0.00,,,0.00,WUHU216DAVISVP2,2013-12-08 06:06:00,
2013-12-08 00:12:00,2.2,-1.1,30.36,ESE,117,0.0,5.0,86,0.00,,,0.00,WUHU216DAVISVP2,2013-12-08 06:12:00,
2013-12-08 00:17:00,2.3,-1.0,30.36,ESE,108,2.0,8.0,86,0.00,,,0.00,WUHU216DAVISVP2,2013-12-08 06:17:00,
2013-12-08 00:22:00,2.5,-0.8,30.36,ESE,112,1.0,8.0,86,0.00,,,0.00,WUHU216DAVISVP2,2013-12-08 06:22:00,
2013-12-08 00:27:00,2.5,-0.8,30.35,East,99,1.0,6.0,86,0.00,,,0.00,WUHU216DAVISVP2,2013-12-08 06:27:00,
2013-12-08 00:31:00,2.6,-0.9,30.35,ESE,123,1.0,6.0,85,0.00,,,0.00,WUHU216DAVISVP2,2013-12-08 06:31:00,
2013-12-08 00:37:00,2.7,-0.6,30.34,SSE,147,0.0,5.0,86,0.00,,,0.00,WUHU216DAVISVP2,2013-12-08 06:37:00,
2013-12-08 00:41:00,2.8,-0.5,30.34,ESE,119,1.0,4.0,86,0.00,,,0.00,WUHU216DAVISVP2,2013-12-08 06:41:00,
2013-12-08 00:46:00,2.8,-0.5,30.34,SE,144,1.0,4.0,86,0.00,,,0.00,WUHU216DAVISVP2,2013-12-08 06:46:00,
2013-12-08 00:51:00,2.9,-0.4,30.34,East,85,3.0,5.0,86,0.00,,,0.00,WUHU216DAVISVP2,2013-12-08 06:51:00,
2013-12-08 00:56:00,3.0,-0.3,30.33,SE,126,1.0,5.0,86,0.00,,,0.00,WUHU216DAVISVP2,2013-12-08 06:56:00,
2013-12-08 01:01:00,3.0,-0.3,30.33,ESE,111,3.0,5.0,86,0.00,,,0.00,WUHU216DAVISVP2,2013-12-08 07:01:00,
2013-12-08 01:06:00,3.1,-0.1,30.33,ESE,114,2.0,7.0,86,0.00,,,0.00,WUHU216DAVISVP2,2013-12-08 07:06:00,
2013-12-08 01:11:00,3.2,0.0,30.32,ESE,113,1.0,7.0,86,0.00,,,0.00,WUHU216DAVISVP2,2013-12-08 07:11:00,
2013-12-08 01:16:00,3.3,0.0,30.32,East,95,2.0,5.0,86,0.00,,,0.00,WUHU216DAVISVP2,2013-12-08 07:16:00,
2013-12-08 01:21:00,3.4,0.1,30.31,ESE,104,1.0,5.0,86,0.00,,,0.00,WUHU216DAVISVP2,2013-12-08 07:21:00,
2013-12-08 01:26:00,3.5,0.2,30.31,ESE,117,0.0,4.0,86,0.00,,,0.00,WUHU216DAVISVP2,2013-12-08 07:26:00,
2013-12-08 01:31:00,3.6,0.3,30.31,ESE,110,0.0,4.0,86,0.00,,,0.00,WUHU216DAVISVP2,2013-12-08 07:31:00,
2013-12-08 01:36:00,3.7,0.4,30.30,ESE,110,0.0,4.0,86,0.00,,,0.00,WUHU216DAVISVP2,2013-12-08 07:36:00,
2013-12-08 01:41:00,3.8,0.5,30.30,ENE,67,1.0,4.0,86,0.00,,,0.00,WUHU216DAVISVP2,2013-12-08 07:41:00,
2013-12-08 01:47:00,3.9,0.6,30.29,East,96,3.0,4.0,86,0.00,,,0.00,WUHU216DAVISVP2,2013-12-08 07:47:00,
2013-12-08 01:52:00,4.0,0.7,30.29,ESE,111,4.0,5.0,86,0.00,,,0.00,WUHU216DAVISVP2,2013-12-08 07:52:00,
2013-12-08 01:57:00,4.1,0.8,30.29,ESE,108,3.0,7.0,86,0.00,,,0.00,WUHU216DAVISVP2,2013-12-08 07:57:00,
2013-12-08 02:02:00,4.1,0.8,30.29,ESE,122,1.0,7.0,86,0.00,,,0.00,WUHU216DAVISVP2,2013-12-08 08:02:00,
2013-12-08 02:07:00,4.3,1.0,30.29,ESE,113,1.0,5.0,86,0.00,,,0.00,WUHU216DAVISVP2,2013-12-08 08:07:00,
2013-12-08 02:12:00,4.4,1.4,30.28,East,101,1.0,5.0,87,0.00,,,0.00,WUHU216DAVISVP2,2013-12-08 08:12:00,
2013-12-08 02:17:00,4.5,1.4,30.28,ESE,122,1.0,5.0,87,0.00,,,0.00,WUHU216DAVISVP2,2013-12-08 08:17:00,
2013-12-08 02:22:00,4.5,1.5,30.28,ESE,111,1.0,4.0,87,0.00,,,0.00,WUHU216DAVISVP2,2013-12-08 08:22:00,
2013-12-08 02:27:00,4.6,1.5,30.28,ESE,102,1.0,4.0,87,0.00,,,0.00,WUHU216DAVISVP2,2013-12-08 08:27:00,
2013-12-08 02:32:00,4.7,1.6,30.27,ESE,117,1.0,4.0,87,0.00,,,0.00,WUHU216DAVISVP2,2013-12-08 08:32:00,
2013-12-08 02:37:00,4.8,1.7,30.27,ESE,107,1.0,3.0,87,0.00,,,0.00,WUHU216DAVISVP2,2013-12-08 08:37:00,
2013-12-08 02:42:00,4.9,1.8,30.27,East,92,1.0,4.0,87,0.00,,,0.00,WUHU216DAVISVP2,2013-12-08 08:42:00,
2013-12-08 02:47:00,5.0,1.9,30.27,ESE,103,0.0,4.0,87,0.00,,,0.00,WUHU216DAVISVP2,2013-12-08 08:47:00,
2013-12-08 02:52:00,5.1,2.0,30.27,ESE,114,0.0,4.0,87,0.00,,,0.00,WUHU216DAVISVP2,2013-12-08 08:52:00,
2013-12-08 02:57:00,5.3,2.2,30.27,SE,127,1.0,4.0,87,0.00,,,0.00,WUHU216DAVISVP2,2013-12-08 08:57:00,
2013-12-08 03:02:00,5.4,2.3,30.26,SE,141,0.0,4.0,87,0.00,,,0.00,WUHU216DAVISVP2,2013-12-08 09:02:00,
2013-12-08 03:07:00,5.6,2.5,30.26,SE,129,1.0,4.0,87,0.00,,,0.00,WUHU216DAVISVP2,2013-12-08 09:07:00,
2013-12-08 03:12:00,5.7,2.6,30.26,ESE,110,1.0,4.0,87,0.00,,,0.00,WUHU216DAVISVP2,2013-12-08 09:12:00,
2013-12-08 03:17:00,5.8,2.7,30.25,ESE,107,1.0,4.0,87,0.00,,,0.00,WUHU216DAVISVP2,2013-12-08 09:17:00,
2013-12-08 03:22:00,5.9,2.8,30.25,SE,129,1.0,4.0,87,0.00,,,0.00,WUHU216DAVISVP2,2013-12-08 09:22:00,
2013-12-08 03:27:00,6.0,2.9,30.25,ESE,113,0.0,4.0,87,0.00,,,0.00,WUHU216DAVISVP2,2013-12-08 09:27:00,
2013-12-08 03:32:00,6.0,2.9,30.24,SE,141,0.0,4.0,87,0.00,,,0.00,WUHU216DAVISVP2,2013-12-08 09:32:00,
2013-12-08 03:37:00,6.1,3.0,30.24,East,101,3.0,7.0,87,0.00,,,0.00,WUHU216DAVISVP2,2013-12-08 09:37:00,
2013-12-08 03:41:00,6.1,3.0,30.24,ESE,121,1.0,7.0,87,0.00,,,0.00,WUHU216DAVISVP2,2013-12-08 09:41:00,
2013-12-08 03:47:00,6.2,3.1,30.24,SE,144,0.0,5.0,87,0.00,,,0.00,WUHU216DAVISVP2,2013-12-08 09:47:00,
2013-12-08 03:52:00,6.2,3.1,30.23,ESE,116,1.0,5.0,87,0.00,,,0.00,WUHU216DAVISVP2,2013-12-08 09:52:00,
2013-12-08 03:57:00,6.3,3.2,30.23,ESE,120,1.0,5.0,87,0.00,,,0.00,WUHU216DAVISVP2,2013-12-08 09:57:00,
2013-12-08 04:02:00,6.5,3.4,30.23,East,96,0.0,5.0,87,0.00,,,0.00,WUHU216DAVISVP2,2013-12-08 10:02:00,
2013-12-08 04:07:00,6.5,3.4,30.22,East,96,0.0,4.0,87,0.00,,,0.00,WUHU216DAVISVP2,2013-12-08 10:07:00,
2013-12-08 04:12:00,6.6,3.5,30.22,SSE,151,0.0,5.0,87,0.00,,,0.00,WUHU216DAVISVP2,2013-12-08 10:12:00,
2013-12-08 04:17:00,6.6,3.5,30.22,ESE,110,1.0,5.0,87,0.00,,,0.00,WUHU216DAVISVP2,2013-12-08 10:17:00,
2013-12-08 04:22:00,6.6,3.6,30.21,SE,124,3.0,5.0,87,0.00,,,0.00,WUHU216DAVISVP2,2013-12-08 10:22:00,
2013-12-08 04:27:00,6.7,3.7,30.21,ESE,115,1.0,4.0,87,0.00,,,0.00,WUHU216DAVISVP2,2013-12-08 10:27:00,
2013-12-08 04:32:00,6.7,3.6,30.21,ESE,120,4.0,4.0,87,0.00,,,0.00,WUHU216DAVISVP2,2013-12-08 10:32:00,
2013-12-08 04:37:00,6.7,3.6,30.21,SE,139,4.0,5.0,87,0.00,,,0.00,WUHU216DAVISVP2,2013-12-08 10:37:00,
2013-12-08 04:42:00,6.7,3.6,30.20,East,96,0.0,5.0,87,0.00,,,0.00,WUHU216DAVISVP2,2013-12-08 10:42:00,
2013-12-08 04:47:00,6.8,3.7,30.20,ESE,120,1.0,4.0,87,0.00,,,0.00,WUHU216DAVISVP2,2013-12-08 10:47:00,
2013-12-08 04:52:00,6.8,3.7,30.20,ESE,108,1.0,4.0,87,0.00,,,0.00,WUHU216DAVISVP2,2013-12-08 10:52:00,
2013-12-08 04:57:00,6.8,3.7,30.20,East,98,1.0,4.0,87,0.00,,,0.00,WUHU216DAVISVP2,2013-12-08 10:57:00,
2013-12-08 05:02:00,6.8,3.7,30.19,ESE,113,0.0,4.0,87,0.00,,,0.00,WUHU216DAVISVP2,2013-12-08 11:02:00,
2013-12-08 05:07:00,6.8,3.7,30.19,SE,139,0.0,4.0,87,0.00,,,0.00,WUHU216DAVISVP2,2013-12-08 11:07:00,
2013-12-08 05:12:00,6.8,3.7,30.19,ESE,109,1.0,5.0,87,0.00,,,0.00,WUHU216DAVISVP2,2013-12-08 11:12:00,
2013-12-08 05:17:00,6.8,3.7,30.19,ESE,110,1.0,5.0,87,0.00,,,0.00,WUHU216DAVISVP2,2013-12-08 11:17:00,
2013-12-08 05:22:00,6.9,3.8,30.18,SE,138,1.0,4.0,87,0.00,,,0.00,WUHU216DAVISVP2,2013-12-08 11:22:00,
2013-12-08 05:27:00,6.9,3.8,30.18,ESE,109,1.0,4.0,87,0.00,,,0.00,WUHU216DAVISVP2,2013-12-08 11:27:00,
2013-12-08 05:32:00,6.9,3.8,30.18,ESE,118,1.0,3.0,87,0.00,,,0.00,WUHU216DAVISVP2,2013-12-08 11:32:00,
2013-12-08 05:37:00,6.9,3.8,30.18,SSE,157,4.0,4.0,87,0.00,,,0.00,WUHU216DAVISVP2,2013-12-08 11:37:00,
2013-12-08 05:42:00,6.9,3.8,30.18,ESE,109,1.0,7.0,87,0.00,,,0.00,WUHU216DAVISVP2,2013-12-08 11:42:00,
2013-12-08 05:47:00,7.0,3.9,30.18,ESE,107,3.0,7.0,87,0.00,,,0.00,WUHU216DAVISVP2,2013-12-08 11:47:00,
2013-12-08 05:52:00,7.0,3.9,30.18,ESE,122,0.0,5.0,87,0.00,,,0.00,WUHU216DAVISVP2,2013-12-08 11:52:00,
2013-12-08 05:57:00,7.0,3.9,30.17,ESE,118,1.0,5.0,87,0.00,,,0.00,WUHU216DAVISVP2,2013-12-08 11:57:00,
2013-12-08 06:02:00,7.0,3.9,30.17,SE,146,1.0,4.0,87,0.00,,,0.00,WUHU216DAVISVP2,2013-12-08 12:02:00,
2013-12-08 06:07:00,7.0,3.9,30.17,ESE,113,2.0,4.0,87,0.00,,,0.00,WUHU216DAVISVP2,2013-12-08 12:07:00,
2013-12-08 06:12:00,7.0,3.9,30.17,ESE,108,2.0,4.0,87,0.00,,,0.00,WUHU216DAVISVP2,2013-12-08 12:12:00,
2013-12-08 06:17:00,7.0,3.9,30.17,ESE,120,0.0,4.0,87,0.00,,,0.00,WUHU216DAVISVP2,2013-12-08 12:17:00,
2013-12-08 06:22:00,7.1,4.0,30.17,ESE,112,1.0,4.0,87,0.00,,,0.00,WUHU216DAVISVP2,2013-12-08 12:22:00,
2013-12-08 06:27:00,7.1,4.0,30.17,ESE,102,0.0,4.0,87,0.00,,,0.00,WUHU216DAVISVP2,2013-12-08 12:27:00,
2013-12-08 06:32:00,7.1,4.0,30.16,ESE,104,1.0,3.0,87,0.00,,,0.00,WUHU216DAVISVP2,2013-12-08 12:32:00,
2013-12-08 06:37:00,7.1,4.0,30.16,ESE,105,1.0,3.0,87,0.00,,,0.00,WUHU216DAVISVP2,2013-12-08 12:37:00,
2013-12-08 06:42:00,7.1,4.0,30.16,East,101,1.0,3.0,87,0.00,,,0.00,WUHU216DAVISVP2,2013-12-08 12:42:00,
2013-12-08 06:47:00,7.0,3.9,30.16,SE,134,0.0,3.0,87,0.00,,,0.00,WUHU216DAVISVP2,2013-12-08 12:47:00,
2013-12-08 06:52:00,7.0,3.9,30.16,ESE,120,1.0,5.0,87,0.00,,,0.00,WUHU216DAVISVP2,2013-12-08 12:52:00,
2013-12-08 06:57:00,7.0,3.9,30.16,SE,128,1.0,5.0,87,0.00,,,0.00,WUHU216DAVISVP2,2013-12-08 12:57:00,
2013-12-08 07:02:00,7.1,4.0,30.16,East,97,1.0,4.0,87,0.00,,,0.00,WUHU216DAVISVP2,2013-12-08 13:02:00,
2013-12-08 07:07:00,7.2,4.1,30.16,ESE,108,1.0,5.0,87,0.00,,,0.00,WUHU216DAVISVP2,2013-12-08 13:07:00,
2013-12-08 07:12:00,7.2,4.1,30.16,SE,124,0.0,5.0,87,0.00,,,0.00,WUHU216DAVISVP2,2013-12-08 13:12:00,
2013-12-08 07:17:00,7.2,4.1,30.15,SE,132,0.0,4.0,87,0.00,,,0.00,WUHU216DAVISVP2,2013-12-08 13:17:00,
2013-12-08 07:22:00,7.2,4.1,30.15,SE,143,0.0,4.0,87,0.00,,,0.00,WUHU216DAVISVP2,2013-12-08 13:22:00,
2013-12-08 07:27:00,7.2,4.1,30.15,ESE,117,1.0,5.0,87,0.00,,,0.00,WUHU216DAVISVP2,2013-12-08 13:27:00,
2013-12-08 07:32:00,7.2,4.1,30.15,SE,127,0.0,5.0,87,0.00,,,0.00,WUHU216DAVISVP2,2013-12-08 13:32:00,
2013-12-08 07:37:00,7.2,4.1,30.15,ESE,123,0.0,4.0,87,0.00,,,0.00,WUHU216DAVISVP2,2013-12-08 13:37:00,
2013-12-08 07:42:00,7.2,4.1,30.15,East,89,3.0,4.0,87,0.00,,,0.00,WUHU216DAVISVP2,2013-12-08 13:42:00,
2013-12-08 07:47:00,7.2,4.1,30.15,SSE,163,0.0,3.0,87,0.00,,,0.00,WUHU216DAVISVP2,2013-12-08 13:47:00,
2013-12-08 07:52:00,7.3,4.2,30.14,ESE,120,0.0,4.0,87,0.00,,,0.00,WUHU216DAVISVP2,2013-12-08 13:52:00,
2013-12-08 07:57:00,7.3,4.2,30.14,SE,138,1.0,4.0,87,0.00,,,0.00,WUHU216DAVISVP2,2013-12-08 13:57:00,
2013-12-08 08:02:00,7.3,4.2,30.14,ESE,113,1.0,4.0,87,0.00,,,0.00,WUHU216DAVISVP2,2013-12-08 14:02:00,
2013-12-08 08:07:00,7.4,4.3,30.14,SE,133,0.0,4.0,87,0.00,,,0.00,WUHU216DAVISVP2,2013-12-08 14:07:00,
2013-12-08 08:12:00,7.4,4.3,30.14,ESE,113,1.0,4.0,87,0.00,,,0.00,WUHU216DAVISVP2,2013-12-08 14:12:00,
2013-12-08 08:17:00,7.4,4.3,30.14,SE,138,1.0,4.0,87,0.00,,,0.00,WUHU216DAVISVP2,2013-12-08 14:17:00,
2013-12-08 08:22:00,7.6,4.5,30.14,SE,139,1.0,4.0,87,0.00,,,0.00,WUHU216DAVISVP2,2013-12-08 14:22:00,
2013-12-08 08:27:00,7.7,4.6,30.14,SSE,153,0.0,4.0,87,0.00,,,0.00,WUHU216DAVISVP2,2013-12-08 14:27:00,
2013-12-08 08:32:00,7.8,4.7,30.13,SE,128,0.0,4.0,87,0.00,,,0.00,WUHU216DAVISVP2,2013-12-08 14:32:00,
2013-12-08 08:37:00,7.9,4.8,30.14,SE,137,1.0,3.0,87,0.00,,,0.00,WUHU216DAVISVP2,2013-12-08 14:37:00,
2013-12-08 08:42:00,7.9,4.8,30.13,ESE,117,1.0,3.0,87,0.00,,,0.00,WUHU216DAVISVP2,2013-12-08 14:42:00,
2013-12-08 08:47:00,8.0,4.9,30.13,ESE,116,2.0,4.0,87,0.00,,,0.00,WUHU216DAVISVP2,2013-12-08 14:47:00,
2013-12-08 08:52:00,8.2,5.1,30.13,ESE,106,0.0,5.0,87,0.00,,,0.00,WUHU216DAVISVP2,2013-12-08 14:52:00,
2013-12-08 08:57:00,8.4,5.3,30.13,ESE,118,3.0,5.0,87,0.00,,,0.00,WUHU216DAVISVP2,2013-12-08 14:57:00,
2013-12-08 09:02:00,8.5,5.1,30.13,SE,126,2.0,4.0,86,0.00,,,0.00,WUHU216DAVISVP2,2013-12-08 15:02:00,
2013-12-08 09:07:00,8.5,5.1,30.13,ESE,123,2.0,5.0,86,0.00,,,0.00,WUHU216DAVISVP2,2013-12-08 15:07:00,
2013-12-08 09:12:00,8.5,5.1,30.13,SE,130,2.0,5.0,86,0.00,,,0.00,WUHU216DAVISVP2,2013-12-08 15:12:00,
2013-12-08 09:17:00,8.5,5.1,30.13,ESE,114,3.0,7.0,86,0.00,,,0.00,WUHU216DAVISVP2,2013-12-08 15:17:00,
2013-12-08 09:22:00,8.7,5.3,30.13,ESE,103,1.0,7.0,86,0.00,,,0.00,WUHU216DAVISVP2,2013-12-08 15:22:00,
2013-12-08 09:27:00,8.8,5.2,30.13,ESE,106,2.0,5.0,85,0.00,,,0.00,WUHU216DAVISVP2,2013-12-08 15:27:00,
2013-12-08 09:32:00,9.0,5.4,30.12,SSE,153,3.0,5.0,85,0.00,,,0.00,WUHU216DAVISVP2,2013-12-08 15:32:00,
2013-12-08 09:37:00,9.3,5.7,30.12,ESE,103,1.0,5.0,85,0.00,,,0.00,WUHU216DAVISVP2,2013-12-08 15:37:00,
2013-12-08 09:42:00,9.7,6.1,30.12,ESE,109,2.0,5.0,85,0.00,,,0.00,WUHU216DAVISVP2,2013-12-08 15:42:00,
2013-12-08 09:47:00,10.0,6.1,30.12,SE,137,1.0,5.0,84,0.00,,,0.00,WUHU216DAVISVP2,2013-12-08 15:47:00,
2013-12-08 09:52:00,10.0,5.8,30.12,ESE,120,2.0,5.0,83,0.00,,,0.00,WUHU216DAVISVP2,2013-12-08 15:52:00,
2013-12-08 09:57:00,10.4,6.5,30.12,SE,146,4.0,5.0,84,0.00,,,0.00,WUHU216DAVISVP2,2013-12-08 15:57:00,
2013-12-08 10:02:00,10.6,6.2,30.12,South,182,1.0,5.0,82,0.00,,,0.00,WUHU216DAVISVP2,2013-12-08 16:02:00,
2013-12-08 10:07:00,10.7,6.3,30.12,SE,142,2.0,5.0,82,0.00,,,0.00,WUHU216DAVISVP2,2013-12-08 16:07:00,
2013-12-08 10:12:00,10.8,6.1,30.12,SE,146,1.0,7.0,81,0.00,,,0.00,WUHU216DAVISVP2,2013-12-08 16:12:00,
2013-12-08 10:17:00,11.2,6.8,30.12,SE,143,1.0,7.0,82,0.00,,,0.00,WUHU216DAVISVP2,2013-12-08 16:17:00,
2013-12-08 10:22:00,11.5,6.5,30.12,SSE,155,4.0,7.0,80,0.00,,,0.00,WUHU216DAVISVP2,2013-12-08 16:22:00,
2013-12-08 10:27:00,11.5,6.8,30.12,SSE,155,0.0,7.0,81,0.00,,,0.00,WUHU216DAVISVP2,2013-12-08 16:27:00,
2013-12-08 10:32:00,11.4,6.4,30.12,ESE,116,3.0,10.0,80,0.00,,,0.00,WUHU216DAVISVP2,2013-12-08 16:32:00,
2013-12-08 10:37:00,11.5,6.8,30.11,SSE,159,1.0,10.0,81,0.00,,,0.00,WUHU216DAVISVP2,2013-12-08 16:37:00,
2013-12-08 10:42:00,11.3,6.3,30.11,East,89,5.0,8.0,80,0.00,,,0.00,WUHU216DAVISVP2,2013-12-08 16:42:00,
2013-12-08 10:47:00,11.4,6.4,30.11,ESE,121,3.0,8.0,80,0.00,,,0.00,WUHU216DAVISVP2,2013-12-08 16:47:00,
2013-12-08 10:52:00,11.5,6.8,30.11,SE,140,1.0,8.0,81,0.00,,,0.00,WUHU216DAVISVP2,2013-12-08 16:52:00,
2013-12-08 10:57:00,11.9,6.9,30.11,SE,142,1.0,7.0,80,0.00,,,0.00,WUHU216DAVISVP2,2013-12-08 16:57:00,
2013-12-08 11:02:00,12.0,6.7,30.10,SE,134,2.0,5.0,79,0.00,,,0.00,WUHU216DAVISVP2,2013-12-08 17:02:00,
2013-12-08 11:07:00,12.0,7.0,30.10,SSE,155,1.0,8.0,80,0.00,,,0.00,WUHU216DAVISVP2,2013-12-08 17:07:00,
2013-12-08 11:12:00,12.3,7.0,30.10,ESE,108,7.0,8.0,79,0.00,,,0.00,WUHU216DAVISVP2,2013-12-08 17:12:00,
2013-12-08 11:17:00,12.0,6.7,30.10,ESE,116,1.0,7.0,79,0.00,,,0.00,WUHU216DAVISVP2,2013-12-08 17:17:00,
2013-12-08 11:22:00,12.1,7.1,30.09,SSE,155,1.0,7.0,80,0.00,,,0.00,WUHU216DAVISVP2,2013-12-08 17:22:00,
2013-12-08 11:27:00,12.1,6.8,30.09,SSE,153,1.0,7.0,79,0.00,,,0.00,WUHU216DAVISVP2,2013-12-08 17:27:00,
2013-12-08 11:32:00,12.0,6.7,30.09,SE,136,1.0,5.0,79,0.00,,,0.00,WUHU216DAVISVP2,2013-12-08 17:32:00,
2013-12-08 11:37:00,11.9,6.6,30.08,SSE,152,3.0,5.0,79,0.00,,,0.00,WUHU216DAVISVP2,2013-12-08 17:37:00,
2013-12-08 11:42:00,11.9,6.6,30.08,SSW,195,1.0,5.0,79,0.00,,,0.00,WUHU216DAVISVP2,2013-12-08 17:42:00,
2013-12-08 11:47:00,12.3,7.3,30.08,SE,133,1.0,4.0,80,0.00,,,0.00,WUHU216DAVISVP2,2013-12-08 17:47:00,
2013-12-08 11:52:00,12.4,7.1,30.07,SSE,167,3.0,5.0,79,0.00,,,0.00,WUHU216DAVISVP2,2013-12-08 17:52:00,
2013-12-08 11:57:00,12.5,7.5,30.07,SE,145,0.0,5.0,80,0.00,,,0.00,WUHU216DAVISVP2,2013-12-08 17:57:00,
2013-12-08 12:02:00,12.5,7.5,30.06,ESE,120,1.0,8.0,80,0.00,,,0.00,WUHU216DAVISVP2,2013-12-08 18:02:00,
2013-12-08 12:07:00,12.3,7.3,30.06,SE,124,3.0,8.0,80,0.00,,,0.00,WUHU216DAVISVP2,2013-12-08 18:07:00,
2013-12-08 12:12:00,12.4,7.4,30.06,SE,129,1.0,6.0,80,0.00,,,0.00,WUHU216DAVISVP2,2013-12-08 18:12:00,
2013-12-08 12:17:00,12.2,7.2,30.06,ESE,116,2.0,6.0,80,0.00,,,0.00,WUHU216DAVISVP2,2013-12-08 18:17:00,
2013-12-08 12:22:00,12.1,7.1,30.05,ESE,106,2.0,7.0,80,0.00,,,0.00,WUHU216DAVISVP2,2013-12-08 18:22:00,
2013-12-08 12:27:00,12.3,7.6,30.05,SE,131,2.0,7.0,81,0.00,,,0.00,WUHU216DAVISVP2,2013-12-08 18:27:00,
2013-12-08 12:32:00,12.4,7.4,30.05,SE,131,2.0,5.0,80,0.00,,,0.00,WUHU216DAVISVP2,2013-12-08 18:32:00,
2013-12-08 12:37:00,12.7,7.4,30.04,SE,136,1.0,5.0,79,0.00,,,0.00,WUHU216DAVISVP2,2013-12-08 18:37:00,
2013-12-08 12:42:00,12.9,7.9,30.04,South,174,0.0,4.0,80,0.00,,,0.00,WUHU216DAVISVP2,2013-12-08 18:42:00,
2013-12-08 12:47:00,13.1,7.8,30.04,SSE,159,1.0,4.0,79,0.00,,,0.00,WUHU216DAVISVP2,2013-12-08 18:47:00,
2013-12-08 12:52:00,13.2,7.9,30.04,SSE,159,1.0,4.0,79,0.00,,,0.00,WUHU216DAVISVP2,2013-12-08 18:52:00,
2013-12-08 12:57:00,13.1,7.8,30.03,South,180,0.0,5.0,79,0.00,,,0.00,WUHU216DAVISVP2,2013-12-08 18:57:00,
2013-12-08 13:02:00,13.2,8.2,30.04,SSW,202,0.0,5.0,80,0.00,,,0.00,WUHU216DAVISVP2,2013-12-08 19:02:00,
2013-12-08 13:07:00,13.4,8.1,30.04,SSE,165,0.0,4.0,79,0.00,,,0.00,WUHU216DAVISVP2,2013-12-08 19:07:00,
2013-12-08 13:12:00,13.6,8.3,30.03,South,173,0.0,4.0,79,0.00,,,0.00,WUHU216DAVISVP2,2013-12-08 19:12:00,
2013-12-08 13:17:00,13.9,8.0,30.03,SSE,157,1.0,3.0,77,0.00,,,0.00,WUHU216DAVISVP2,2013-12-08 19:17:00,
2013-12-08 13:22:00,14.0,8.1,30.03,SSE,161,0.0,3.0,77,0.00,,,0.00,WUHU216DAVISVP2,2013-12-08 19:22:00,
2013-12-08 13:27:00,13.6,7.7,30.03,SE,127,1.0,5.0,77,0.00,,,0.00,WUHU216DAVISVP2,2013-12-08 19:27:00,
2013-12-08 13:32:00,13.3,7.7,30.02,SE,144,0.0,5.0,78,0.00,,,0.00,WUHU216DAVISVP2,2013-12-08 19:32:00,
2013-12-08 13:37:00,13.5,7.6,30.02,SE,140,1.0,4.0,77,0.00,,,0.00,WUHU216DAVISVP2,2013-12-08 19:37:00,
2013-12-08 13:42:00,13.5,7.9,30.02,SSE,150,0.0,4.0,78,0.00,,,0.00,WUHU216DAVISVP2,2013-12-08 19:42:00,
2013-12-08 13:47:00,13.7,7.8,30.01,SSE,150,0.0,4.0,77,0.00,,,0.00,WUHU216DAVISVP2,2013-12-08 19:47:00,
2013-12-08 13:52:00,13.7,7.8,30.01,SSE,156,0.0,3.0,77,0.00,,,0.00,WUHU216DAVISVP2,2013-12-08 19:52:00,
2013-12-08 13:57:00,13.7,7.8,30.00,SSE,159,0.0,3.0,77,0.00,,,0.00,WUHU216DAVISVP2,2013-12-08 19:57:00,
2013-12-08 14:02:00,13.9,8.0,30.01,South,181,0.0,2.0,77,0.00,,,0.00,WUHU216DAVISVP2,2013-12-08 20:02:00,
2013-12-08 14:07:00,13.9,8.0,30.01,ESE,108,1.0,2.0,77,0.00,,,0.00,WUHU216DAVISVP2,2013-12-08 20:07:00,
2013-12-08 14:12:00,13.9,8.3,30.00,SSE,160,0.0,3.0,78,0.00,,,0.00,WUHU216DAVISVP2,2013-12-08 20:12:00,
2013-12-08 14:17:00,13.9,7.8,30.00,SW,220,1.0,3.0,76,0.00,,,0.00,WUHU216DAVISVP2,2013-12-08 20:17:00,
2013-12-08 14:22:00,13.7,7.8,30.00,SSE,155,0.0,2.0,77,0.00,,,0.00,WUHU216DAVISVP2,2013-12-08 20:22:00,
2013-12-08 14:27:00,13.9,8.0,30.00,SSE,149,0.0,1.0,77,0.00,,,0.00,WUHU216DAVISVP2,2013-12-08 20:27:00,
2013-12-08 14:32:00,13.9,8.0,30.00,SSE,160,0.0,1.0,77,0.00,,,0.00,WUHU216DAVISVP2,2013-12-08 20:32:00,
2013-12-08 14:37:00,13.7,7.8,30.00,SSW,198,0.0,3.0,77,0.00,,,0.00,WUHU216DAVISVP2,2013-12-08 20:37:00,
2013-12-08 14:42:00,13.5,7.6,30.00,SE,136,0.0,3.0,77,0.00,,,0.00,WUHU216DAVISVP2,2013-12-08 20:42:00,
2013-12-08 14:47:00,13.4,7.2,30.00,SE,140,0.0,2.0,76,0.00,,,0.00,WUHU216DAVISVP2,2013-12-08 20:47:00,
2013-12-08 14:52:00,13.3,7.7,30.00,SSW,205,0.0,2.0,78,0.00,,,0.00,WUHU216DAVISVP2,2013-12-08 20:52:00,
2013-12-08 14:57:00,13.0,7.4,30.00,SW,218,0.0,1.0,78,0.00,,,0.00,WUHU216DAVISVP2,2013-12-08 20:57:00,
2013-12-08 15:02:00,12.9,7.3,30.00,SW,224,0.0,1.0,78,0.00,,,0.00,WUHU216DAVISVP2,2013-12-08 21:02:00,
2013-12-08 15:07:00,13.0,7.7,30.01,SSE,167,0.0,1.0,79,0.00,,,0.00,WUHU216DAVISVP2,2013-12-08 21:07:00,
2013-12-08 15:12:00,13.0,7.4,30.01,SSE,152,0.0,1.0,78,0.00,,,0.00,WUHU216DAVISVP2,2013-12-08 21:12:00,
2013-12-08 15:17:00,12.9,7.3,30.01,SW,220,0.0,1.0,78,0.00,,,0.00,WUHU216DAVISVP2,2013-12-08 21:17:00,
2013-12-08 15:22:00,12.7,7.4,30.01,WSW,238,0.0,1.0,79,0.00,,,0.00,WUHU216DAVISVP2,2013-12-08 21:22:00,
2013-12-08 15:27:00,12.5,7.2,30.01,SSE,151,0.0,1.0,79,0.00,,,0.00,WUHU216DAVISVP2,2013-12-08 21:27:00,
2013-12-08 15:32:00,12.5,7.5,30.00,SW,219,0.0,1.0,80,0.00,,,0.00,WUHU216DAVISVP2,2013-12-08 21:32:00,
2013-12-08 15:37:00,12.5,7.5,30.00,WSW,247,0.0,1.0,80,0.00,,,0.00,WUHU216DAVISVP2,2013-12-08 21:37:00,
2013-12-08 15:42:00,12.4,7.7,30.00,SW,217,0.0,1.0,81,0.00,,,0.00,WUHU216DAVISVP2,2013-12-08 21:42:00,
2013-12-08 15:47:00,12.2,7.5,30.00,SW,217,0.0,3.0,81,0.00,,,0.00,WUHU216DAVISVP2,2013-12-08 21:47:00,
2013-12-08 15:52:00,12.3,7.6,30.00,SW,236,0.0,3.0,81,0.00,,,0.00,WUHU216DAVISVP2,2013-12-08 21:52:00,
2013-12-08 15:57:00,12.2,7.5,30.01,SW,232,1.0,3.0,81,0.00,,,0.00,WUHU216DAVISVP2,2013-12-08 21:57:00,
2013-12-08 16:02:00,12.1,7.4,30.00,SW,214,0.0,3.0,81,0.00,,,0.00,WUHU216DAVISVP2,2013-12-08 22:02:00,
2013-12-08 16:07:00,12.0,7.3,30.01,SSW,212,0.0,2.0,81,0.00,,,0.00,WUHU216DAVISVP2,2013-12-08 22:07:00,
2013-12-08 16:12:00,12.1,7.6,30.01,SSW,207,0.0,3.0,82,0.00,,,0.00,WUHU216DAVISVP2,2013-12-08 22:12:00,
2013-12-08 16:17:00,12.0,7.5,30.01,WSW,252,0.0,3.0,82,0.00,,,0.00,WUHU216DAVISVP2,2013-12-08 22:17:00,
2013-12-08 16:22:00,11.9,7.4,30.01,SW,231,0.0,2.0,82,0.00,,,0.00,WUHU216DAVISVP2,2013-12-08 22:22:00,
2013-12-08 16:27:00,11.8,7.4,30.01,WSW,243,0.0,2.0,82,0.00,,,0.00,WUHU216DAVISVP2,2013-12-08 22:27:00,
2013-12-08 16:32:00,11.7,7.3,30.01,WSW,243,0.0,1.0,82,0.00,,,0.00,WUHU216DAVISVP2,2013-12-08 22:32:00,
2013-12-08 16:37:00,11.6,7.4,30.01,WSW,256,0.0,1.0,83,0.00,,,0.00,WUHU216DAVISVP2,2013-12-08 22:37:00,
2013-12-08 16:42:00,11.5,7.1,30.01,WSW,254,0.0,1.0,82,0.00,,,0.00,WUHU216DAVISVP2,2013-12-08 22:42:00,
2013-12-08 16:47:00,11.3,7.1,30.01,WSW,257,0.0,1.0,83,0.00,,,0.00,WUHU216DAVISVP2,2013-12-08 22:47:00,
2013-12-08 16:52:00,11.2,7.0,30.01,WSW,256,0.0,1.0,83,0.00,,,0.00,WUHU216DAVISVP2,2013-12-08 22:52:00,
2013-12-08 16:57:00,11.1,7.2,30.01,WNW,291,0.0,1.0,84,0.00,,,0.00,WUHU216DAVISVP2,2013-12-08 22:57:00,
2013-12-08 17:02:00,10.9,6.7,30.01,WSW,248,0.0,1.0,83,0.00,,,0.00,WUHU216DAVISVP2,2013-12-08 23:02:00,
2013-12-08 17:07:00,10.7,6.8,30.01,WSW,244,0.0,1.0,84,0.00,,,0.00,WUHU216DAVISVP2,2013-12-08 23:07:00,
2013-12-08 17:12:00,10.6,7.0,30.01,West,259,0.0,1.0,85,0.00,,,0.00,WUHU216DAVISVP2,2013-12-08 23:12:00,
2013-12-08 17:17:00,10.5,6.9,30.01,WSW,258,0.0,1.0,85,0.00,,,0.00,WUHU216DAVISVP2,2013-12-08 23:17:00,
2013-12-08 17:22:00,10.3,6.7,30.01,WSW,258,0.0,0.0,85,0.00,,,0.00,WUHU216DAVISVP2,2013-12-08 23:22:00,
2013-12-08 17:27:00,10.2,6.6,30.01,WSW,248,0.0,3.0,85,0.00,,,0.00,WUHU216DAVISVP2,2013-12-08 23:27:00,
2013-12-08 17:32:00,10.1,6.5,30.01,WSW,248,0.0,3.0,85,0.00,,,0.00,WUHU216DAVISVP2,2013-12-08 23:32:00,
2013-12-08 17:37:00,9.9,6.5,30.01,WSW,248,0.0,2.0,86,0.00,,,0.00,WUHU216DAVISVP2,2013-12-08 23:37:00,
2013-12-08 17:42:00,9.8,6.4,30.01,WSW,248,0.0,2.0,86,0.00,,,0.00,WUHU216DAVISVP2,2013-12-08 23:42:00,
2013-12-08 17:47:00,9.6,6.2,30.01,WSW,248,0.0,0.0,86,0.00,,,0.00,WUHU216DAVISVP2,2013-12-08 23:47:00,
2013-12-08 17:52:00,9.4,6.0,30.01,West,263,0.0,0.0,86,0.00,,,0.00,WUHU216DAVISVP2,2013-12-08 23:52:00,
2013-12-08 17:57:00,9.3,5.9,30.01,West,263,0.0,0.0,86,0.00,,,0.00,WUHU216DAVISVP2,2013-12-08 23:57:00,
2013-12-08 18:02:00,9.1,5.8,30.01,West,263,0.0,0.0,86,0.00,,,0.00,WUHU216DAVISVP2,2013-12-09 00:02:00,
2013-12-08 18:07:00,8.9,5.8,30.01,West,263,0.0,0.0,87,0.00,,,0.00,WUHU216DAVISVP2,2013-12-09 00:07:00,
2013-12-08 18:12:00,8.7,5.6,30.01,West,263,0.0,0.0,87,0.00,,,0.00,WUHU216DAVISVP2,2013-12-09 00:12:00,
2013-12-08 18:17:00,8.4,5.3,30.01,West,263,0.0,0.0,87,0.00,,,0.00,WUHU216DAVISVP2,2013-12-09 00:17:00,
2013-12-08 18:22:00,8.3,5.4,30.02,West,262,0.0,0.0,88,0.00,,,0.00,WUHU216DAVISVP2,2013-12-09 00:22:00,
2013-12-08 18:27:00,8.1,5.2,30.02,West,263,0.0,0.0,88,0.00,,,0.00,WUHU216DAVISVP2,2013-12-09 00:27:00,
2013-12-08 18:32:00,8.0,5.1,30.02,West,263,0.0,0.0,88,0.00,,,0.00,WUHU216DAVISVP2,2013-12-09 00:32:00,
2013-12-08 18:37:00,7.9,5.0,30.02,WNW,299,0.0,0.0,88,0.00,,,0.00,WUHU216DAVISVP2,2013-12-09 00:37:00,
2013-12-08 18:42:00,7.9,5.3,30.02,WNW,295,0.0,0.0,89,0.00,,,0.00,WUHU216DAVISVP2,2013-12-09 00:42:00,
2013-12-08 18:47:00,7.8,5.2,30.03,WNW,285,0.0,0.0,89,0.00,,,0.00,WUHU216DAVISVP2,2013-12-09 00:47:00,
2013-12-08 18:52:00,7.7,5.1,30.03,WNW,285,0.0,0.0,89,0.00,,,0.00,WUHU216DAVISVP2,2013-12-09 00:52:00,
2013-12-08 18:57:00,7.6,5.0,30.03,West,280,0.0,0.0,89,0.00,,,0.00,WUHU216DAVISVP2,2013-12-09 00:57:00,
2013-12-08 19:02:00,7.5,4.9,30.03,West,281,0.0,0.0,89,0.00,,,0.00,WUHU216DAVISVP2,2013-12-09 01:02:00,
2013-12-08 19:07:00,7.4,4.8,30.02,West,281,0.0,0.0,89,0.00,,,0.00,WUHU216DAVISVP2,2013-12-09 01:07:00,
2013-12-08 19:12:00,7.3,4.7,30.02,West,281,0.0,0.0,89,0.00,,,0.00,WUHU216DAVISVP2,2013-12-09 01:12:00,
2013-12-08 19:17:00,7.1,4.5,30.02,West,281,0.0,0.0,89,0.00,,,0.00,WUHU216DAVISVP2,2013-12-09 01:17:00,
2013-12-08 19:22:00,7.0,4.4,30.02,NW,306,0.0,0.0,89,0.00,,,0.00,WUHU216DAVISVP2,2013-12-09 01:22:00,
2013-12-08 19:27:00,7.0,4.4,30.02,WNW,292,0.0,0.0,89,0.00,,,0.00,WUHU216DAVISVP2,2013-12-09 01:27:00,
2013-12-08 19:32:00,6.9,4.3,30.02,NW,314,0.0,0.0,89,0.00,,,0.00,WUHU216DAVISVP2,2013-12-09 01:32:00,
2013-12-08 19:37:00,7.0,4.4,30.03,West,267,0.0,1.0,89,0.00,,,0.00,WUHU216DAVISVP2,2013-12-09 01:37:00,
2013-12-08 19:42:00,7.0,4.4,30.03,West,276,0.0,1.0,89,0.00,,,0.00,WUHU216DAVISVP2,2013-12-09 01:42:00,
2013-12-08 19:47:00,6.9,4.3,30.03,WNW,297,0.0,1.0,89,0.00,,,0.00,WUHU216DAVISVP2,2013-12-09 01:47:00,
2013-12-08 19:52:00,6.9,4.3,30.03,WSW,243,0.0,3.0,89,0.00,,,0.00,WUHU216DAVISVP2,2013-12-09 01:52:00,
2013-12-08 19:57:00,6.8,4.2,30.03,West,269,0.0,3.0,89,0.00,,,0.00,WUHU216DAVISVP2,2013-12-09 01:57:00,
2013-12-08 20:02:00,6.7,4.1,30.03,West,276,0.0,2.0,89,0.00,,,0.00,WUHU216DAVISVP2,2013-12-09 02:02:00,
2013-12-08 20:07:00,6.6,4.0,30.04,WNW,283,0.0,2.0,89,0.00,,,0.00,WUHU216DAVISVP2,2013-12-09 02:07:00,
2013-12-08 20:12:00,6.4,3.8,30.04,WSW,254,0.0,1.0,89,0.00,,,0.00,WUHU216DAVISVP2,2013-12-09 02:12:00,
2013-12-08 20:17:00,6.3,3.7,30.04,WNW,293,0.0,1.0,89,0.00,,,0.00,WUHU216DAVISVP2,2013-12-09 02:17:00,
2013-12-08 20:22:00,6.2,3.6,30.04,WNW,296,0.0,1.0,89,0.00,,,0.00,WUHU216DAVISVP2,2013-12-09 02:22:00,
2013-12-08 20:27:00,6.1,3.3,30.04,WNW,284,0.0,1.0,88,0.00,,,0.00,WUHU216DAVISVP2,2013-12-09 02:27:00,
2013-12-08 20:32:00,5.9,3.1,30.04,West,267,0.0,0.0,88,0.00,,,0.00,WUHU216DAVISVP2,2013-12-09 02:32:00,
2013-12-08 20:37:00,5.8,3.0,30.04,NW,315,0.0,1.0,88,0.00,,,0.00,WUHU216DAVISVP2,2013-12-09 02:37:00,
2013-12-08 20:42:00,5.7,2.9,30.04,WNW,302,0.0,4.0,88,0.00,,,0.00,WUHU216DAVISVP2,2013-12-09 02:42:00,
2013-12-08 20:47:00,5.5,2.7,30.04,WNW,287,0.0,4.0,88,0.00,,,0.00,WUHU216DAVISVP2,2013-12-09 02:47:00,
2013-12-08 20:52:00,5.4,2.6,30.04,WNW,302,0.0,3.0,88,0.00,,,0.00,WUHU216DAVISVP2,2013-12-09 02:52:00,
2013-12-08 20:57:00,5.4,2.6,30.05,West,277,0.0,3.0,88,0.00,,,0.00,WUHU216DAVISVP2,2013-12-09 02:57:00,
2013-12-08 21:02:00,5.3,2.5,30.05,West,259,0.0,3.0,88,0.00,,,0.00,WUHU216DAVISVP2,2013-12-09 03:02:00,
2013-12-08 21:07:00,5.1,2.3,30.05,West,276,1.0,3.0,88,0.00,,,0.00,WUHU216DAVISVP2,2013-12-09 03:07:00,
2013-12-08 21:12:00,5.0,2.2,30.05,NW,306,0.0,2.0,88,0.00,,,0.00,WUHU216DAVISVP2,2013-12-09 03:12:00,
2013-12-08 21:17:00,4.9,2.1,30.05,NW,316,0.0,2.0,88,0.00,,,0.00,WUHU216DAVISVP2,2013-12-09 03:17:00,
2013-12-08 21:22:00,4.8,2.0,30.05,NW,316,0.0,1.0,88,0.00,,,0.00,WUHU216DAVISVP2,2013-12-09 03:22:00,
2013-12-08 21:27:00,4.7,1.9,30.05,NW,309,1.0,3.0,88,0.00,,,0.00,WUHU216DAVISVP2,2013-12-09 03:27:00,
2013-12-08 21:32:00,4.6,1.8,30.04,NW,305,0.0,3.0,88,0.00,,,0.00,WUHU216DAVISVP2,2013-12-09 03:32:00,
2013-12-08 21:37:00,4.4,1.6,30.04,WNW,290,0.0,3.0,88,0.00,,,0.00,WUHU216DAVISVP2,2013-12-09 03:37:00,
2013-12-08 21:42:00,4.2,1.4,30.04,WNW,297,0.0,3.0,88,0.00,,,0.00,WUHU216DAVISVP2,2013-12-09 03:42:00,
2013-12-08 21:47:00,4.1,1.3,30.05,WSW,256,0.0,3.0,88,0.00,,,0.00,WUHU216DAVISVP2,2013-12-09 03:47:00,
2013-12-08 21:52:00,4.1,1.3,30.05,WNW,291,0.0,2.0,88,0.00,,,0.00,WUHU216DAVISVP2,2013-12-09 03:52:00,
2013-12-08 21:57:00,4.0,1.2,30.05,WSW,255,0.0,3.0,88,0.00,,,0.00,WUHU216DAVISVP2,2013-12-09 03:57:00,
2013-12-08 22:02:00,4.0,1.2,30.04,NW,304,0.0,3.0,88,0.00,,,0.00,WUHU216DAVISVP2,2013-12-09 04:02:00,
2013-12-08 22:07:00,3.9,1.1,30.04,WNW,283,0.0,3.0,88,0.00,,,0.00,WUHU216DAVISVP2,2013-12-09 04:07:00,
2013-12-08 22:12:00,4.0,1.2,30.04,NNW,341,1.0,5.0,88,0.00,,,0.00,WUHU216DAVISVP2,2013-12-09 04:12:00,
2013-12-08 22:17:00,4.0,1.2,30.04,NW,304,3.0,5.0,88,0.00,,,0.00,WUHU216DAVISVP2,2013-12-09 04:17:00,
2013-12-08 22:22:00,4.1,1.3,30.04,WNW,299,1.0,4.0,88,0.00,,,0.00,WUHU216DAVISVP2,2013-12-09 04:22:00,
2013-12-08 22:27:00,4.1,1.3,30.04,WSW,245,0.0,4.0,88,0.00,,,0.00,WUHU216DAVISVP2,2013-12-09 04:27:00,
2013-12-08 22:32:00,4.1,1.3,30.04,NW,314,1.0,4.0,88,0.00,,,0.00,WUHU216DAVISVP2,2013-12-09 04:32:00,
2013-12-08 22:37:00,4.0,1.2,30.05,WNW,289,1.0,4.0,88,0.00,,,0.00,WUHU216DAVISVP2,2013-12-09 04:37:00,
2013-12-08 22:42:00,4.0,1.2,30.05,WNW,293,0.0,7.0,88,0.00,,,0.00,WUHU216DAVISVP2,2013-12-09 04:42:00,
2013-12-08 22:47:00,3.8,0.8,30.05,West,264,0.0,7.0,87,0.00,,,0.00,WUHU216DAVISVP2,2013-12-09 04:47:00,
2013-12-08 22:52:00,3.6,0.6,30.05,West,266,1.0,5.0,87,0.00,,,0.00,WUHU216DAVISVP2,2013-12-09 04:52:00,
2013-12-08 22:57:00,3.5,0.5,30.05,West,279,4.0,5.0,87,0.00,,,0.00,WUHU216DAVISVP2,2013-12-09 04:57:00,
2013-12-08 23:01:00,3.5,0.5,30.05,West,279,2.0,5.0,87,0.00,,,0.00,WUHU216DAVISVP2,2013-12-09 05:01:00,
2013-12-08 23:06:00,3.3,0.3,30.05,WNW,291,1.0,11.0,87,0.00,,,0.00,WUHU216DAVISVP2,2013-12-09 05:06:00,
2013-12-08 23:11:00,3.0,0.0,30.05,WNW,285,3.0,11.0,87,0.00,,,0.00,WUHU216DAVISVP2,2013-12-09 05:11:00,
2013-12-08 23:16:00,2.6,-0.7,30.05,West,263,3.0,11.0,86,0.00,,,0.00,WUHU216DAVISVP2,2013-12-09 05:16:00,
2013-12-08 23:21:00,2.2,-1.1,30.06,WNW,282,2.0,8.0,86,0.00,,,0.00,WUHU216DAVISVP2,2013-12-09 05:21:00,
2013-12-08 23:26:00,1.9,-1.4,30.06,WNW,289,5.0,8.0,86,0.00,,,0.00,WUHU216DAVISVP2,2013-12-09 05:26:00,
2013-12-08 23:31:00,1.6,-1.6,30.06,WNW,290,2.0,8.0,86,0.00,,,0.00,WUHU216DAVISVP2,2013-12-09 05:31:00,
2013-12-08 23:36:00,1.3,-1.9,30.06,WNW,299,2.0,8.0,86,0.00,,,0.00,WUHU216DAVISVP2,2013-12-09 05:36:00,
2013-12-08 23:41:00,1.0,-2.5,30.06,NW,306,2.0,8.0,85,0.00,,,0.00,WUHU216DAVISVP2,2013-12-09 05:41:00,
2013-12-08 23:46:00,0.7,-2.8,30.06,West,275,2.0,8.0,85,0.00,,,0.00,WUHU216DAVISVP2,2013-12-09 05:46:00,
2013-12-08 23:51:00,0.5,-3.0,30.07,WNW,296,1.0,7.0,85,0.00,,,0.00,WUHU216DAVISVP2,2013-12-09 05:51:00,
2013-12-08 23:56:00,0.3,-3.1,30.07,West,281,1.0,7.0,85,0.00,,,0.00,WUHU216DAVISVP2,2013-12-09 05:56:00,